Time;durP1;ratioP1;P1;durP2;ratioP2;P2;SDS_P1;SDS_P2;PMS_P1;PMS_P2;Temp;Humidity;BMP_temperature;BMP_pressure;BME280_temperature;BME280_humidity;BME280_pressure;Samples;Min_cycle;Max_cycle;Signal;HPM_P1;HPM_P2
2022/02/10 00:13:55;;;;;;;58.20;13.37;;;3.50;71.30;;;;;;5130678;27;20129;-74
2022/02/10 00:17:03;;;;;;;36.70;12.53;;;3.50;71.50;;;;;;5130438;27;20042;-71
2022/02/10 00:35:08;;;;;;;27.17;11.63;;;3.50;71.40;;;;;;5130404;27;20046;-72
2022/02/10 00:37:50;;;;;;;23.97;11.80;;;3.50;71.20;;;;;;5131568;27;20486;-72
2022/02/10 00:40:20;;;;;;;29.13;12.13;;;3.60;71.40;;;;;;5133356;27;20933;-72
2022/02/10 00:42:46;;;;;;;34.73;12.40;;;3.60;71.30;;;;;;5128678;27;20110;-74
2022/02/10 00:45:11;;;;;;;32.47;12.30;;;3.50;71.30;;;;;;5120869;27;20023;-72
2022/02/10 00:47:53;;;;;;;32.33;13.03;;;3.50;71.30;;;;;;5132389;27;20035;-73
2022/02/10 00:50:20;;;;;;;48.83;14.33;;;3.50;71.70;;;;;;5132555;27;20454;-72
2022/02/10 00:52:47;;;;;;;32.40;12.07;;;3.50;71.80;;;;;;5138933;27;20018;-73
2022/02/10 00:55:17;;;;;;;26.17;11.77;;;3.50;71.80;;;;;;5137266;27;21657;-72
2022/02/10 00:57:42;;;;;;;32.00;12.43;;;3.50;71.80;;;;;;5124506;27;20043;-71
2022/02/10 01:00:37;;;;;;;20.43;12.83;;;3.50;71.60;;;;;;5136726;27;20388;-72
2022/02/10 01:29:48;;;;;;;31.00;12.10;;;3.40;71.60;;;;;;5136234;27;20126;-72
2022/02/10 01:32:15;;;;;;;24.73;11.40;;;3.50;71.60;;;;;;5133109;27;20030;-72
2022/02/10 01:34:50;;;;;;;22.23;11.70;;;3.50;71.70;;;;;;5129948;27;20022;-71
2022/02/10 01:37:17;;;;;;;23.23;12.43;;;3.50;71.60;;;;;;5132054;27;20023;-72
2022/02/10 01:39:52;;;;;;;21.97;11.90;;;3.50;71.60;;;;;;5132985;27;20019;-72
2022/02/10 01:43:08;;;;;;;20.83;11.50;;;3.50;71.50;;;;;;5138637;27;20913;-72
2022/02/10 02:04:21;;;;;;;29.23;12.37;;;3.30;71.40;;;;;;5134784;27;20039;-72
2022/02/10 02:06:49;;;;;;;28.17;11.10;;;3.30;71.60;;;;;;5133554;27;20064;-73
2022/02/10 02:09:17;;;;;;;24.97;11.27;;;3.30;71.60;;;;;;5132601;27;20547;-72
2022/02/10 02:11:45;;;;;;;23.60;12.53;;;3.30;71.70;;;;;;5133908;27;20030;-72
2022/02/10 02:14:16;;;;;;;20.03;11.17;;;3.30;71.60;;;;;;5123421;27;20029;-72
2022/02/10 02:16:46;;;;;;;24.63;12.80;;;3.30;71.70;;;;;;5131042;27;20036;-72
2022/02/10 02:19:12;;;;;;;29.93;12.67;;;3.40;71.80;;;;;;5128089;27;20010;-73
2022/02/10 02:21:40;;;;;;;27.50;12.20;;;3.40;71.80;;;;;;5132813;27;21678;-71
2022/02/10 02:24:13;;;;;;;21.77;12.47;;;3.40;71.70;;;;;;5146945;27;20023;-72
2022/02/10 02:26:40;;;;;;;28.63;11.53;;;3.30;71.70;;;;;;5130887;27;20046;-73
2022/02/10 02:29:08;;;;;;;40.53;11.93;;;3.30;71.70;;;;;;5134750;27;20064;-73
2022/02/10 02:31:41;;;;;;;26.33;11.50;;;3.30;71.70;;;;;;5134734;27;20079;-72
2022/02/10 03:08:57;;;;;;;21.40;11.40;;;3.20;71.80;;;;;;5136690;27;20030;-73
2022/02/10 03:11:23;;;;;;;19.20;11.20;;;3.20;71.60;;;;;;5126653;27;20020;-72
2022/02/10 03:13:58;;;;;;;27.83;13.30;;;3.10;71.40;;;;;;5136443;27;20037;-72
2022/02/10 03:21:53;;;;;;;37.20;12.47;;;3.00;71.80;;;;;;5136020;27;20046;-72
2022/02/10 04:07:30;;;;;;;30.87;11.97;;;3.00;71.60;;;;;;5128023;27;20264;-70
2022/02/10 04:10:17;;;;;;;59.07;12.60;;;2.90;71.50;;;;;;5133401;27;20035;-72
2022/02/10 05:07:57;;;;;;;23.10;10.20;;;2.50;71.40;;;;;;5136144;27;20455;-71
2022/02/10 05:35:27;;;;;;;19.20;9.93;;;2.40;71.60;;;;;;5139249;27;20118;-73
2022/02/10 05:45:48;;;;;;;16.97;9.60;;;2.30;72.00;;;;;;5131812;27;20035;-71
2022/02/10 05:51:15;;;;;;;18.23;10.30;;;2.20;71.70;;;;;;5128525;27;20027;-71
2022/02/10 06:00:02;;;;;;;15.70;9.67;;;2.30;71.70;;;;;;5133668;27;20525;-71
2022/02/10 06:53:28;;;;;;;31.37;18.63;;;2.20;70.60;;;;;;5127573;27;20024;-72
2022/02/10 07:57:52;;;;;;;17.00;9.63;;;2.30;69.20;;;;;;5135860;27;20468;-72
2022/02/10 09:59:30;;;;;;;20.30;12.67;;;7.30;59.30;;;;;;5124733;27;20126;-72
2022/02/10 10:02:03;;;;;;;23.60;13.87;;;7.40;59.90;;;;;;5130082;27;20080;-72
2022/02/10 10:04:54;;;;;;;23.27;14.90;;;7.50;58.90;;;;;;5136947;27;20579;-72
2022/02/10 10:15:27;;;;;;;20.03;12.77;;;8.00;57.90;;;;;;5123690;27;20028;-72
2022/02/10 10:21:09;;;;;;;11.60;8.60;;;8.40;57.40;;;;;;5128011;27;20081;-72
2022/02/10 11:25:31;;;;;;;5.33;3.80;;;11.30;51.40;;;;;;5136031;27;20087;-72
2022/02/10 13:03:10;;;;;;;4.10;3.03;;;11.80;46.40;;;;;;5128515;27;20042;-73
2022/02/10 14:15:06;;;;;;;8.80;3.57;;;11.40;46.10;;;;;;5114175;28;20035;-72
2022/02/10 14:17:42;;;;;;;9.10;3.70;;;11.40;46.10;;;;;;5113968;28;20024;-72
2022/02/10 14:20:32;;;;;;;10.47;3.87;;;11.40;46.20;;;;;;5139328;27;20019;-73
2022/02/10 14:23:06;;;;;;;4.83;2.70;;;11.30;46.30;;;;;;5134263;27;20164;-72
2022/02/10 14:28:04;;;;;;;7.57;3.47;;;11.20;46.30;;;;;;5134665;27;20046;-72
2022/02/10 14:30:31;;;;;;;6.53;3.87;;;11.10;46.30;;;;;;5150122;27;20035;-73
2022/02/10 14:32:58;;;;;;;11.07;3.97;;;11.00;46.30;;;;;;5134518;27;20115;-72
2022/02/10 14:35:36;;;;;;;7.17;4.10;;;10.90;46.70;;;;;;5134507;27;20051;-73
2022/02/10 14:43:29;;;;;;;6.87;3.27;;;10.70;47.10;;;;;;5134592;27;20072;-72
2022/02/10 15:11:03;;;;;;;17.87;8.73;;;10.70;48.40;;;;;;5115835;27;20047;-72
2022/02/10 16:18:41;;;;;;;6.23;4.07;;;8.70;57.60;;;;;;5136649;27;20051;-73
2022/02/10 16:21:07;;;;;;;6.00;4.50;;;8.60;57.80;;;;;;5137009;27;20022;-72
2022/02/10 16:23:33;;;;;;;9.17;5.27;;;8.50;58.20;;;;;;5152339;27;20019;-72
2022/02/10 16:26:11;;;;;;;13.03;6.30;;;8.40;58.30;;;;;;5137197;27;20095;-72
2022/02/10 16:28:40;;;;;;;9.03;5.83;;;8.40;58.30;;;;;;5137137;27;20474;-72
2022/02/10 16:31:07;;;;;;;14.00;7.80;;;8.30;58.50;;;;;;5152626;27;20050;-71
2022/02/10 16:33:34;;;;;;;12.83;8.13;;;8.20;58.80;;;;;;5152843;27;20019;-73
2022/02/10 16:36:00;;;;;;;15.67;8.90;;;8.20;58.80;;;;;;5136008;27;20020;-74
2022/02/10 16:38:29;;;;;;;13.10;8.60;;;8.20;58.80;;;;;;5152640;27;20022;-72
2022/02/10 16:40:55;;;;;;;10.83;6.90;;;8.10;58.80;;;;;;5152635;27;20110;-72
2022/02/10 16:43:22;;;;;;;10.77;6.80;;;8.10;59.00;;;;;;5136237;27;20329;-72
2022/02/10 16:45:47;;;;;;;16.47;9.53;;;8.00;59.10;;;;;;5136270;27;20035;-72
2022/02/10 16:48:13;;;;;;;14.77;10.10;;;8.00;59.30;;;;;;5136630;27;20076;-72
2022/02/10 16:50:43;;;;;;;13.47;9.63;;;8.00;59.30;;;;;;5134721;27;20027;-72
2022/02/10 16:53:12;;;;;;;16.20;11.27;;;7.90;59.30;;;;;;5128405;27;20026;-71
2022/02/10 17:17:30;;;;;;;13.50;8.77;;;7.40;60.30;;;;;;5136194;27;20055;-72
2022/02/10 17:25:29;;;;;;;18.47;11.17;;;7.30;60.10;;;;;;5114521;28;20153;-72
2022/02/10 17:27:59;;;;;;;20.10;11.67;;;7.10;60.10;;;;;;5131623;27;20031;-71
2022/02/10 17:30:57;;;;;;;24.43;15.27;;;7.00;60.50;;;;;;5134317;27;20024;-71
2022/02/10 17:54:22;;;;;;;12.27;7.57;;;6.50;61.40;;;;;;5114549;27;20024;-71
2022/02/10 17:56:48;;;;;;;13.03;8.40;;;6.50;61.40;;;;;;5113176;28;20024;-71
2022/02/10 17:59:14;;;;;;;20.17;11.10;;;6.50;61.60;;;;;;5114585;28;20024;-71
2022/02/10 18:01:42;;;;;;;16.50;11.03;;;6.50;61.60;;;;;;5144019;27;20023;-71
2022/02/10 18:04:09;;;;;;;13.33;9.77;;;6.40;62.30;;;;;;5133659;27;20434;-71
2022/02/10 18:06:46;;;;;;;16.97;10.80;;;6.40;61.60;;;;;;5135018;27;20050;-72
2022/02/10 18:14:34;;;;;;;10.87;7.27;;;6.40;61.60;;;;;;5134820;27;20031;-71
2022/02/10 18:19:41;;;;;;;47.83;35.53;;;6.20;61.80;;;;;;5114119;28;20047;-71
2022/02/10 18:30:11;;;;;;;13.23;11.07;;;6.00;62.30;;;;;;5113549;28;20047;-72
2022/02/10 19:03:34;;;;;;;9.47;5.53;;;5.60;62.80;;;;;;5113439;28;20011;-71
2022/02/10 19:05:45;;;;;;;10.50;7.43;;;5.70;63.00;;;;;;5112688;28;20645;-71
2022/02/10 19:08:20;;;;;;;13.63;7.80;;;5.60;63.00;;;;;;5114065;28;20024;-73
2022/02/10 19:10:48;;;;;;;14.30;9.17;;;5.60;62.90;;;;;;5112242;28;20020;-72
2022/02/10 19:13:17;;;;;;;14.30;9.27;;;5.60;62.90;;;;;;5112759;28;20019;-72
2022/02/10 19:15:43;;;;;;;12.43;8.50;;;5.60;63.10;;;;;;5113224;28;20349;-71
2022/02/10 19:18:10;;;;;;;9.73;6.97;;;5.60;63.20;;;;;;5112658;28;20035;-72
2022/02/10 19:20:37;;;;;;;13.20;8.20;;;5.60;63.30;;;;;;5115555;27;20042;-72
2022/02/10 19:23:07;;;;;;;12.03;8.87;;;5.50;63.20;;;;;;5133607;27;20050;-71
2022/02/10 19:25:36;;;;;;;14.83;9.83;;;5.40;63.10;;;;;;5132606;27;20102;-72
2022/02/10 19:28:03;;;;;;;12.70;8.53;;;5.30;63.70;;;;;;5149581;27;20034;-72
2022/02/10 19:30:31;;;;;;;14.87;11.00;;;5.30;63.90;;;;;;5133551;27;20019;-70
2022/02/10 19:33:00;;;;;;;14.60;11.00;;;5.30;63.90;;;;;;5133073;27;20125;-70
2022/02/10 19:35:28;;;;;;;12.23;9.80;;;5.30;63.90;;;;;;5133470;27;20471;-72
2022/02/10 19:37:59;;;;;;;13.20;10.27;;;5.40;63.80;;;;;;5133324;27;20015;-73
2022/02/10 19:40:33;;;;;;;10.60;8.87;;;5.40;63.60;;;;;;5133078;27;20133;-73
2022/02/10 19:42:59;;;;;;;11.13;8.33;;;5.30;63.40;;;;;;5133309;27;20019;-73
2022/02/10 19:45:24;;;;;;;14.33;10.33;;;5.30;63.40;;;;;;5149401;27;20114;-73
2022/02/10 19:47:51;;;;;;;14.87;10.57;;;5.30;63.60;;;;;;5131323;27;20069;-72
2022/02/10 19:50:24;;;;;;;15.20;9.13;;;5.20;63.40;;;;;;5133354;27;20041;-72
2022/02/10 19:52:51;;;;;;;15.83;9.20;;;5.10;63.60;;;;;;5124990;27;20072;-70
2022/02/10 19:55:23;;;;;;;19.90;13.43;;;5.20;63.80;;;;;;5148682;27;20118;-71
2022/02/10 19:57:53;;;;;;;24.30;15.70;;;5.10;63.50;;;;;;5131913;28;20029;-70
2022/02/10 20:00:24;;;;;;;15.13;9.70;;;5.10;63.50;;;;;;5132530;27;20686;-71
2022/02/10 20:02:50;;;;;;;14.63;9.97;;;5.10;63.50;;;;;;5133293;27;20023;-69
2022/02/10 20:05:21;;;;;;;12.13;8.43;;;5.00;63.90;;;;;;5148725;27;20668;-70
2022/02/10 20:07:51;;;;;;;19.90;11.40;;;5.00;64.00;;;;;;5148516;27;20027;-69
2022/02/10 20:10:18;;;;;;;22.43;13.57;;;5.00;64.00;;;;;;5131835;28;20055;-70
2022/02/10 20:12:44;;;;;;;15.43;10.10;;;4.90;64.10;;;;;;5133229;27;20043;-70
2022/02/10 20:15:12;;;;;;;12.07;6.73;;;4.90;64.20;;;;;;5131540;28;20034;-70
2022/02/10 20:17:38;;;;;;;9.40;5.80;;;5.00;64.30;;;;;;5148066;27;20102;-70
2022/02/10 20:20:05;;;;;;;10.23;5.60;;;4.90;64.10;;;;;;5149016;27;20019;-70
2022/02/10 20:22:35;;;;;;;12.23;7.57;;;4.90;63.90;;;;;;5148414;27;20387;-70
2022/02/10 20:25:02;;;;;;;10.97;6.53;;;4.80;64.10;;;;;;5149012;27;20023;-71
2022/02/10 20:27:28;;;;;;;19.27;12.60;;;4.80;64.30;;;;;;5132722;27;20092;-72
2022/02/10 20:29:54;;;;;;;22.30;13.40;;;4.70;64.40;;;;;;5132534;27;20228;-72
2022/02/10 20:32:20;;;;;;;11.80;7.23;;;4.70;64.60;;;;;;5131509;28;20037;-71
2022/02/10 20:34:47;;;;;;;10.37;7.10;;;4.70;65.30;;;;;;5117543;27;20020;-72
2022/02/10 20:37:13;;;;;;;13.10;7.77;;;4.80;64.70;;;;;;5109963;28;20024;-70
2022/02/10 20:39:39;;;;;;;9.87;6.57;;;4.80;64.60;;;;;;5110641;28;20016;-71
2022/02/10 20:42:10;;;;;;;9.20;6.70;;;4.80;64.70;;;;;;5112029;28;20081;-71
2022/02/10 20:44:37;;;;;;;9.57;6.17;;;4.70;64.60;;;;;;5110446;28;20022;-72
2022/02/10 20:47:03;;;;;;;8.13;5.30;;;4.70;64.70;;;;;;5127795;28;20062;-71
2022/02/10 20:49:29;;;;;;;8.77;5.80;;;4.60;64.80;;;;;;5127942;28;20028;-71
2022/02/10 20:51:56;;;;;;;7.67;4.30;;;4.60;65.10;;;;;;5119330;28;20035;-71
2022/02/10 20:54:24;;;;;;;9.23;4.80;;;4.60;65.20;;;;;;5110710;28;20115;-71
2022/02/10 20:56:49;;;;;;;13.33;7.33;;;4.60;65.30;;;;;;5111656;28;20032;-71
2022/02/10 20:59:23;;;;;;;19.33;8.57;;;4.60;65.20;;;;;;5111977;28;20068;-70
2022/02/10 21:01:59;;;;;;;10.73;6.47;;;4.60;65.10;;;;;;5114055;28;20073;-71
2022/02/10 21:04:30;;;;;;;11.07;4.90;;;4.60;64.90;;;;;;5115365;28;20075;-71
2022/02/10 21:09:35;;;;;;;12.10;6.47;;;4.60;64.90;;;;;;5135541;27;20030;-71
2022/02/10 21:12:03;;;;;;;5.93;4.03;;;4.60;64.90;;;;;;5151856;27;20023;-71
2022/02/10 21:14:29;;;;;;;7.13;4.83;;;4.60;64.90;;;;;;5136055;27;20020;-70
2022/02/10 21:16:57;;;;;;;8.67;5.73;;;4.70;65.10;;;;;;5135959;27;20041;-71
2022/02/10 21:19:24;;;;;;;10.97;7.00;;;4.60;64.90;;;;;;5151417;27;20662;-71
2022/02/10 21:21:51;;;;;;;12.90;7.97;;;4.50;65.00;;;;;;5135826;27;20087;-71
2022/02/10 21:24:24;;;;;;;18.83;10.53;;;4.50;65.10;;;;;;5135063;27;20047;-70
2022/02/10 21:29:35;;;;;;;20.27;12.37;;;4.40;65.00;;;;;;5103417;27;20076;-71
2022/02/10 21:32:01;;;;;;;24.10;13.13;;;4.40;64.90;;;;;;5135226;27;20459;-71
2022/02/10 21:34:32;;;;;;;13.30;6.87;;;4.30;64.90;;;;;;5135292;27;20038;-71
2022/02/10 21:37:05;;;;;;;11.00;6.57;;;4.30;65.00;;;;;;5135615;27;20076;-71
2022/02/10 22:23:21;;;;;;;11.03;7.37;;;4.00;65.90;;;;;;5113743;27;20024;-71
2022/02/10 22:25:48;;;;;;;15.67;7.37;;;4.00;65.30;;;;;;5112701;28;20369;-71
2022/02/10 22:28:30;;;;;;;8.63;5.40;;;3.90;65.60;;;;;;5114103;28;20026;-70
2022/02/10 22:31:16;;;;;;;4.77;3.20;;;3.90;65.50;;;;;;5113772;28;20015;-70
2022/02/10 22:36:11;;;;;;;6.50;4.60;;;4.10;65.30;;;;;;5133501;27;20019;-70
2022/02/10 22:38:37;;;;;;;9.27;5.60;;;4.10;65.30;;;;;;5150234;27;20539;-71
2022/02/10 22:41:09;;;;;;;7.40;3.70;;;4.00;65.30;;;;;;5133340;27;20070;-70
2022/02/10 22:43:36;;;;;;;5.32;3.15;;;4.00;65.30;;;;;;5133911;27;20078;-70
2022/02/10 22:46:03;;;;;;;4.73;3.40;;;4.00;65.30;;;;;;5134221;27;20047;-70
2022/02/10 22:48:28;;;;;;;7.70;5.20;;;4.10;65.50;;;;;;5134426;27;20055;-71
2022/02/10 22:50:54;;;;;;;9.40;4.90;;;4.10;65.50;;;;;;5116268;27;20031;-70
2022/02/10 22:53:20;;;;;;;15.33;9.10;;;4.10;65.30;;;;;;5113601;28;20051;-70
2022/02/10 22:55:45;;;;;;;15.00;10.20;;;3.90;65.50;;;;;;5113793;28;20026;-70
2022/02/10 22:58:12;;;;;;;16.63;11.00;;;3.90;65.60;;;;;;5111723;28;20088;-70
2022/02/10 23:00:48;;;;;;;15.93;11.27;;;3.80;65.80;;;;;;5113593;28;20381;-70
2022/02/10 23:03:23;;;;;;;14.03;10.20;;;3.80;65.90;;;;;;5129352;27;20102;-70
2022/02/10 23:05:49;;;;;;;18.23;11.83;;;3.80;65.80;;;;;;5113157;28;20047;-70
2022/02/10 23:08:15;;;;;;;14.53;10.40;;;3.80;65.80;;;;;;5132508;27;20031;-70
2022/02/10 23:10:44;;;;;;;18.10;10.77;;;3.80;65.80;;;;;;5132805;27;20034;-70
2022/02/10 23:13:12;;;;;;;18.10;10.97;;;3.70;66.10;;;;;;5133670;27;20071;-71
2022/02/10 23:15:38;;;;;;;13.57;9.67;;;3.70;66.30;;;;;;5134039;27;20367;-71
2022/02/10 23:18:07;;;;;;;14.67;9.30;;;3.70;66.10;;;;;;5133407;27;20069;-71
2022/02/10 23:20:33;;;;;;;17.17;9.30;;;3.70;66.20;;;;;;5133892;27;20102;-71
2022/02/10 23:22:59;;;;;;;13.87;9.30;;;3.70;66.10;;;;;;5143373;27;20076;-71
2022/02/10 23:25:26;;;;;;;17.13;10.57;;;3.70;66.10;;;;;;5117154;27;20015;-71
2022/02/10 23:27:52;;;;;;;19.40;12.27;;;3.70;66.20;;;;;;5132060;27;20033;-71
2022/02/10 23:30:23;;;;;;;18.90;12.27;;;3.60;66.30;;;;;;5133842;27;20046;-71
2022/02/10 23:32:49;;;;;;;19.33;11.20;;;3.60;66.60;;;;;;5133125;27;20490;-70
2022/02/10 23:38:11;;;;;;;21.70;11.23;;;3.60;66.80;;;;;;5077487;27;20120;-71
2022/02/10 23:40:53;;;;;;;20.17;10.73;;;3.60;66.70;;;;;;5118997;28;20027;-70
2022/02/10 23:43:19;;;;;;;20.67;9.68;;;3.50;66.80;;;;;;5139848;27;20023;-70
2022/02/10 23:45:45;;;;;;;12.43;7.87;;;3.50;66.90;;;;;;5132927;27;20047;-70
2022/02/10 23:48:10;;;;;;;12.13;6.60;;;3.50;67.10;;;;;;5132913;27;20425;-71
2022/02/10 23:50:37;;;;;;;12.87;6.83;;;3.60;67.20;;;;;;5126048;28;20114;-71
2022/02/10 23:53:03;;;;;;;10.37;6.00;;;3.60;66.80;;;;;;5112544;28;20027;-72
2022/02/10 23:55:34;;;;;;;9.87;5.90;;;3.60;66.90;;;;;;5112898;28;20081;-70
2022/02/10 23:58:14;;;;;;;9.53;5.77;;;3.70;66.80;;;;;;5113426;28;20038;-70
